Time;durP1;ratioP1;P1;durP2;ratioP2;P2;SDS_P1;SDS_P2;PMS_P1;PMS_P2;Temp;Humidity;BMP_temperature;BMP_pressure;BME280_temperature;BME280_humidity;BME280_pressure;Samples;Min_cycle;Max_cycle;Signal;HPM_P1;HPM_P2
2023/03/20 00:02:19;;;;;;;1.10;0.90;;;;;;;12.95;78.84;98907.41;4992883;28;103226;-58
2023/03/20 00:04:48;;;;;;;1.63;1.10;;;;;;;12.67;79.79;98908.72;4989492;28;103877;-58
2023/03/20 00:07:16;;;;;;;1.47;1.00;;;;;;;12.79;79.83;98914.88;4992835;28;104147;-58
2023/03/20 00:09:46;;;;;;;1.20;1.10;;;;;;;12.94;78.88;98916.31;4973036;28;102903;-58
2023/03/20 00:12:17;;;;;;;1.10;1.00;;;;;;;12.95;78.75;98917.16;4989704;28;103128;-58
2023/03/20 00:14:45;;;;;;;1.13;0.90;;;;;;;12.96;78.99;98909.09;4977126;28;105950;-58
2023/03/20 00:17:18;;;;;;;0.90;0.90;;;;;;;12.91;79.14;98913.06;4978183;28;103173;-58
2023/03/20 00:19:47;;;;;;;0.80;0.80;;;;;;;12.89;78.79;98915.84;4989019;28;102624;-58
2023/03/20 00:22:15;;;;;;;1.15;1.05;;;;;;;12.45;80.82;98907.84;4991369;28;103786;-58
2023/03/20 00:24:46;;;;;;;0.80;0.80;;;;;;;12.38;81.39;98909.28;4989509;28;103869;-58
2023/03/20 00:27:15;;;;;;;1.25;1.13;;;;;;;12.39;82.11;98906.50;4992438;28;102717;-58
2023/03/20 00:29:44;;;;;;;1.85;1.02;;;;;;;12.54;81.20;98913.28;4991391;28;103624;-58
2023/03/20 00:32:13;;;;;;;1.90;1.80;;;;;;;12.34;81.97;98908.66;4989585;28;104062;-58
2023/03/20 00:34:42;;;;;;;1.45;1.35;;;;;;;12.63;81.11;98917.03;4976127;28;103920;-58
2023/03/20 00:37:11;;;;;;;1.50;1.40;;;;;;;12.80;80.42;98913.88;4988754;28;102720;-58
2023/03/20 00:39:40;;;;;;;1.50;1.40;;;;;;;12.90;79.77;98920.19;4992000;28;102755;-58
2023/03/20 00:42:19;;;;;;;2.40;1.67;;;;;;;12.83;79.18;98923.44;4974090;28;104267;-57
2023/03/20 00:44:52;;;;;;;2.13;1.52;;;;;;;12.92;79.63;98926.19;4992849;28;103721;-58
2023/03/20 00:47:24;;;;;;;1.63;1.52;;;;;;;12.87;79.83;98925.72;4990496;28;102690;-58
2023/03/20 00:49:54;;;;;;;1.90;1.10;;;;;;;12.56;80.52;98923.75;4990807;28;103780;-58
2023/03/20 00:52:25;;;;;;;1.20;1.10;;;;;;;12.75;81.02;98921.38;4971818;28;103309;-58
2023/03/20 00:54:53;;;;;;;1.40;1.30;;;;;;;12.87;80.54;98919.56;4972691;28;103246;-57
2023/03/20 00:57:27;;;;;;;1.30;1.10;;;;;;;13.00;79.61;98923.78;4968256;28;103116;-57
2023/03/20 00:59:58;;;;;;;0.90;0.90;;;;;;;13.08;79.44;98924.06;4981127;28;103051;-57
2023/03/20 01:02:28;;;;;;;2.13;1.60;;;;;;;12.98;78.90;98925.72;4965547;28;105479;-57
2023/03/20 01:04:58;;;;;;;1.50;1.30;;;;;;;13.01;79.50;98928.13;4980816;28;103194;-57
2023/03/20 01:07:27;;;;;;;1.10;1.00;;;;;;;13.08;79.45;98920.59;4980266;28;102807;-56
2023/03/20 01:09:55;;;;;;;1.30;1.20;;;;;;;13.14;78.37;98928.03;4964120;28;103968;-57
2023/03/20 01:12:26;;;;;;;1.50;1.40;;;;;;;13.10;78.80;98924.81;4981580;28;103987;-57
2023/03/20 01:14:56;;;;;;;1.90;1.70;;;;;;;12.78;79.65;98929.09;4977007;28;104101;-57
2023/03/20 01:17:26;;;;;;;2.00;1.80;;;;;;;12.59;81.30;98923.53;4959302;28;104129;-57
2023/03/20 01:19:54;;;;;;;1.80;1.43;;;;;;;12.76;81.17;98928.38;4985715;28;102827;-57
2023/03/20 01:22:24;;;;;;;2.05;1.85;;;;;;;12.72;80.43;98932.19;4966161;28;103265;-58
2023/03/20 01:24:52;;;;;;;1.70;1.60;;;;;;;12.81;80.83;98928.84;4967692;28;103093;-58
2023/03/20 01:27:20;;;;;;;1.70;1.60;;;;;;;12.85;80.34;98922.34;4985244;28;103112;-58
2023/03/20 01:29:50;;;;;;;2.20;2.00;;;;;;;12.74;79.74;98925.81;4973630;28;103897;-58
2023/03/20 01:32:19;;;;;;;1.73;1.60;;;;;;;12.58;81.65;98916.53;4962027;28;103976;-59
2023/03/20 01:34:50;;;;;;;2.17;1.90;;;;;;;12.56;81.33;98921.09;4972413;28;103401;-58
2023/03/20 01:37:24;;;;;;;1.90;1.80;;;;;;;12.71;81.25;98925.22;4970005;28;103085;-58
2023/03/20 01:39:53;;;;;;;1.63;1.52;;;;;;;12.82;80.93;98922.59;4969704;28;104459;-58
2023/03/20 01:42:21;;;;;;;1.70;1.60;;;;;;;12.87;80.22;98925.72;4981276;28;103347;-58
2023/03/20 01:44:51;;;;;;;1.60;1.50;;;;;;;12.96;79.89;98932.13;4975648;28;104162;-58
2023/03/20 01:47:24;;;;;;;1.42;1.33;;;;;;;13.03;79.40;98928.84;4964288;28;102786;-58
2023/03/20 01:50:25;;;;;;;1.60;1.50;;;;;;;13.06;79.13;98928.63;4961971;28;103032;-58
2023/03/20 01:53:07;;;;;;;2.45;2.22;;;;;;;12.67;80.33;98935.22;4975376;28;103300;-58
2023/03/20 01:55:43;;;;;;;2.22;2.05;;;;;;;12.79;80.98;98933.44;4968576;28;103198;-58
2023/03/20 01:58:19;;;;;;;2.03;1.83;;;;;;;12.96;80.18;98935.63;4972123;28;102781;-58
2023/03/20 02:00:49;;;;;;;2.30;2.10;;;;;;;12.89;80.26;98939.69;4962602;28;104680;-58
2023/03/20 02:03:20;;;;;;;2.20;2.00;;;;;;;12.72;81.08;98937.50;4979450;28;103272;-58
2023/03/20 02:06:07;;;;;;;1.90;1.80;;;;;;;12.77;80.61;98945.97;4981811;28;103362;-58
2023/03/20 02:09:14;;;;;;;1.83;1.67;;;;;;;12.75;80.60;98947.88;4975654;28;103903;-58
2023/03/20 02:11:46;;;;;;;1.93;1.83;;;;;;;12.80;80.36;98946.56;4976616;28;102963;-58
2023/03/20 02:14:17;;;;;;;1.60;1.33;;;;;;;12.80;80.36;98943.91;4960052;28;104389;-58
2023/03/20 02:17:05;;;;;;;1.60;1.27;;;;;;;12.92;79.96;98950.06;4966364;28;103252;-57
2023/03/20 02:19:55;;;;;;;1.50;1.40;;;;;;;12.94;79.18;98953.44;4979406;28;102809;-63
2023/03/20 02:22:49;;;;;;;1.40;1.30;;;;;;;12.98;78.78;98954.91;4965265;28;103394;-63
2023/03/20 02:25:45;;;;;;;1.50;1.20;;;;;;;12.99;78.33;98956.59;4958981;28;103080;-63
2023/03/20 02:28:45;;;;;;;1.87;1.50;;;;;;;12.81;79.60;98952.72;4959981;28;105422;-63
2023/03/20 02:31:36;;;;;;;2.20;1.65;;;;;;;12.67;79.78;98958.22;4968400;28;102817;-63
2023/03/20 02:34:45;;;;;;;1.55;1.40;;;;;;;12.69;79.98;98956.28;4977823;28;103080;-62
2023/03/20 02:37:39;;;;;;;1.50;1.40;;;;;;;12.54;80.05;98955.69;4929666;28;103497;-63
2023/03/20 02:40:21;;;;;;;1.60;1.40;;;;;;;12.54;80.02;98966.28;4971508;28;103056;-63
2023/03/20 02:42:58;;;;;;;1.10;1.00;;;;;;;12.74;79.52;98962.94;4972056;28;102949;-63
2023/03/20 02:45:29;;;;;;;1.30;1.20;;;;;;;12.78;78.19;98958.25;4957977;28;103033;-63
2023/03/20 02:48:17;;;;;;;1.20;1.10;;;;;;;12.75;78.16;98953.19;4977218;28;105201;-63
2023/03/20 02:50:50;;;;;;;1.60;1.30;;;;;;;12.69;78.61;98956.28;4986733;28;104129;-63
2023/03/20 02:53:31;;;;;;;1.47;1.33;;;;;;;12.25;81.01;98964.13;4976796;28;103117;-63
2023/03/20 02:56:12;;;;;;;1.50;1.10;;;;;;;12.50;80.37;98950.72;4979182;28;103553;-63
2023/03/20 02:58:49;;;;;;;1.60;1.50;;;;;;;12.42;79.63;98953.09;4957304;28;104530;-63
2023/03/20 03:01:22;;;;;;;0.90;0.90;;;;;;;12.54;79.89;98965.44;4963700;28;105295;-63
2023/03/20 03:03:57;;;;;;;1.50;0.90;;;;;;;12.50;78.64;98964.81;4981311;28;102721;-63
2023/03/20 03:06:30;;;;;;;1.10;1.00;;;;;;;12.57;78.49;98965.22;4963026;28;104072;-63
2023/03/20 03:09:06;;;;;;;0.95;0.90;;;;;;;12.51;78.15;98961.22;4972826;28;103239;-61
2023/03/20 03:11:37;;;;;;;0.80;0.80;;;;;;;12.50;78.63;98963.97;4975738;28;105069;-62
2023/03/20 03:14:07;;;;;;;1.20;0.80;;;;;;;12.53;78.33;98964.59;4959225;28;102939;-62
2023/03/20 03:16:40;;;;;;;0.98;0.88;;;;;;;12.52;78.76;98962.88;4977457;28;103881;-62
2023/03/20 03:19:15;;;;;;;0.90;0.80;;;;;;;12.59;78.13;98964.13;4962791;28;103299;-62
2023/03/20 03:21:46;;;;;;;1.10;0.83;;;;;;;12.52;77.98;98964.72;4973240;28;104435;-62
2023/03/20 03:24:28;;;;;;;0.90;0.80;;;;;;;12.51;77.65;98966.53;4962113;28;102730;-62
2023/03/20 03:27:16;;;;;;;0.70;0.70;;;;;;;12.62;77.64;98971.00;4952048;28;103724;-62
2023/03/20 03:29:48;;;;;;;0.83;0.83;;;;;;;12.63;77.13;98970.88;4973545;28;103491;-62
2023/03/20 03:32:25;;;;;;;0.73;0.70;;;;;;;12.46;77.37;98983.72;4980008;28;103218;-62
2023/03/20 03:34:54;;;;;;;0.60;0.60;;;;;;;11.99;79.32;98974.84;4982316;28;103363;-62
2023/03/20 03:37:32;;;;;;;0.60;0.60;;;;;;;12.47;78.19;98982.75;4978024;28;104070;-62
2023/03/20 03:40:16;;;;;;;1.60;0.75;;;;;;;12.21;77.88;98979.41;4970673;28;105499;-62
2023/03/20 03:42:52;;;;;;;1.00;0.70;;;;;;;12.20;78.16;98989.16;4967075;28;103516;-62
2023/03/20 03:45:29;;;;;;;0.90;0.75;;;;;;;12.36;77.68;98983.56;4984148;28;102676;-62
2023/03/20 03:48:02;;;;;;;0.68;0.52;;;;;;;12.46;77.85;98989.84;4956641;28;103007;-62
2023/03/20 03:50:36;;;;;;;0.73;0.70;;;;;;;11.93;78.20;98985.88;4974010;28;103202;-62
2023/03/20 03:53:10;;;;;;;0.80;0.70;;;;;;;12.25;78.72;98982.66;4973826;28;104364;-62
2023/03/20 03:55:46;;;;;;;0.60;0.60;;;;;;;12.45;77.76;98988.19;4972502;28;103671;-62
2023/03/20 03:58:20;;;;;;;0.73;0.70;;;;;;;12.38;77.60;98983.47;4975742;28;103108;-62
2023/03/20 04:00:54;;;;;;;0.98;0.80;;;;;;;12.50;77.08;98987.81;4960185;28;104178;-62
2023/03/20 04:03:32;;;;;;;1.40;0.70;;;;;;;12.58;76.95;98983.63;4959060;28;103199;-62
2023/03/20 04:06:02;;;;;;;0.80;0.80;;;;;;;12.47;77.72;98990.69;4981448;28;102822;-62
2023/03/20 04:08:31;;;;;;;0.70;0.70;;;;;;;12.52;77.87;98993.88;4978948;28;103960;-63
2023/03/20 04:11:01;;;;;;;2.00;1.02;;;;;;;12.38;77.90;98994.06;4967398;28;103557;-62
2023/03/20 04:13:30;;;;;;;0.90;0.80;;;;;;;12.51;78.37;98997.47;4965036;28;103313;-62
2023/03/20 04:15:58;;;;;;;0.80;0.80;;;;;;;12.54;77.61;99002.53;4991524;28;102724;-62
2023/03/20 04:18:27;;;;;;;0.93;0.90;;;;;;;12.39;78.46;98998.38;4970867;28;102892;-58
2023/03/20 04:20:56;;;;;;;0.60;0.60;;;;;;;12.50;78.27;98998.41;4987407;28;103612;-56
2023/03/20 04:23:24;;;;;;;1.37;0.50;;;;;;;11.99;79.28;98993.38;4974205;28;103186;-60
2023/03/20 04:25:52;;;;;;;1.10;0.60;;;;;;;11.77;80.36;98995.91;4968213;28;102810;-60
2023/03/20 04:28:21;;;;;;;1.20;0.80;;;;;;;11.53;80.99;98992.38;4975875;28;104008;-61
2023/03/20 04:31:17;;;;;;;0.90;0.80;;;;;;;11.37;82.85;98986.44;4958282;28;104233;-61
2023/03/20 04:33:55;;;;;;;1.43;1.13;;;;;;;11.31;83.35;98992.19;4982950;28;103262;-60
2023/03/20 04:36:23;;;;;;;1.67;0.90;;;;;;;11.22;83.48;98987.56;4981767;28;102759;-61
2023/03/20 04:38:52;;;;;;;0.70;0.70;;;;;;;11.06;85.00;98985.13;4975056;28;104397;-61
2023/03/20 04:41:25;;;;;;;1.07;0.97;;;;;;;10.95;85.59;98991.16;4984074;28;104228;-60
2023/03/20 04:43:57;;;;;;;1.67;1.00;;;;;;;10.65;86.84;98990.63;4967313;28;103191;-61
2023/03/20 04:46:26;;;;;;;1.67;1.20;;;;;;;10.33;90.05;98991.97;4960206;28;103362;-60
2023/03/20 04:48:56;;;;;;;1.10;1.00;;;;;;;10.46;89.75;98998.97;4974821;28;103053;-59
2023/03/20 04:51:28;;;;;;;1.80;0.80;;;;;;;10.54;89.31;98994.94;4966161;28;103269;-58
2023/03/20 04:53:57;;;;;;;1.07;0.97;;;;;;;10.67;88.80;98993.16;4976064;28;103156;-61
2023/03/20 04:56:26;;;;;;;0.80;0.70;;;;;;;10.82;87.97;99006.19;4970538;28;102641;-61
2023/03/20 04:59:08;;;;;;;0.93;0.80;;;;;;;10.94;86.77;98993.91;4974548;28;104141;-61
2023/03/20 05:01:36;;;;;;;1.20;0.80;;;;;;;10.99;86.30;99000.56;4988580;28;103232;-61
2023/03/20 05:04:07;;;;;;;0.83;0.80;;;;;;;11.02;85.80;99010.94;4975317;28;104292;-61
2023/03/20 05:06:37;;;;;;;1.27;1.00;;;;;;;10.97;85.57;99005.13;4960891;28;102958;-61
2023/03/20 05:09:05;;;;;;;1.03;1.00;;;;;;;10.95;86.06;99012.31;4968205;28;102799;-61
2023/03/20 05:11:35;;;;;;;0.80;0.70;;;;;;;10.89;86.60;99014.53;4985234;28;103004;-61
2023/03/20 05:14:18;;;;;;;0.80;0.70;;;;;;;10.80;86.13;99026.59;4976791;28;105260;-61
2023/03/20 05:17:04;;;;;;;0.80;0.70;;;;;;;10.92;85.92;99028.38;4987003;28;103042;-63
2023/03/20 05:19:56;;;;;;;0.70;0.70;;;;;;;11.00;85.18;99030.50;4960018;28;102746;-63
2023/03/20 05:22:52;;;;;;;0.60;0.60;;;;;;;11.00;85.17;99031.34;4987452;28;103188;-64
2023/03/20 05:25:39;;;;;;;0.60;0.60;;;;;;;11.03;84.88;99031.13;4984044;28;103315;-64
2023/03/20 05:28:20;;;;;;;1.10;0.53;;;;;;;10.97;84.44;99034.22;4978946;28;102703;-64
2023/03/20 05:30:56;;;;;;;0.80;0.70;;;;;;;10.99;84.79;99029.66;4985049;28;104164;-64
2023/03/20 05:33:36;;;;;;;0.80;0.80;;;;;;;11.00;84.62;99026.03;4970181;28;103459;-64
2023/03/20 05:36:27;;;;;;;1.60;0.83;;;;;;;10.93;84.55;99022.16;4991989;28;103882;-64
2023/03/20 05:39:13;;;;;;;0.90;0.70;;;;;;;10.97;83.88;99018.34;4994364;28;102734;-64
2023/03/20 05:42:06;;;;;;;0.83;0.83;;;;;;;10.90;84.24;99017.06;4970350;28;103028;-63
2023/03/20 05:44:52;;;;;;;1.83;1.50;;;;;;;10.90;84.08;99022.34;4997822;28;103243;-63
2023/03/20 05:48:00;;;;;;;1.53;1.43;;;;;;;10.78;84.47;99025.81;4942869;28;103245;-63
2023/03/20 05:50:49;;;;;;;1.20;1.10;;;;;;;10.71;85.11;99027.19;4930221;28;102917;-63
2023/03/20 05:53:36;;;;;;;0.70;0.70;;;;;;;10.90;84.40;99030.28;4970199;28;102789;-63
2023/03/20 05:56:33;;;;;;;1.03;0.93;;;;;;;10.96;83.66;99035.16;4976959;28;104713;-63
2023/03/20 05:59:25;;;;;;;0.80;0.80;;;;;;;11.02;83.32;99032.09;4994711;28;103310;-64
2023/03/20 06:02:16;;;;;;;0.70;0.70;;;;;;;10.99;83.00;99040.22;4980383;28;102774;-64
2023/03/20 06:04:57;;;;;;;1.30;1.03;;;;;;;10.71;84.60;99053.63;4990692;28;104286;-63
2023/03/20 06:07:31;;;;;;;0.90;0.90;;;;;;;11.00;84.06;99057.78;4978373;28;103137;-63
2023/03/20 06:10:03;;;;;;;0.90;0.80;;;;;;;10.82;84.35;99048.47;4979001;28;104289;-64
2023/03/20 06:12:32;;;;;;;0.80;0.70;;;;;;;10.84;84.43;99051.84;4969210;28;103137;-63
2023/03/20 06:15:01;;;;;;;0.60;0.60;;;;;;;10.90;84.34;99055.88;4979152;28;102872;-63
2023/03/20 06:17:32;;;;;;;1.07;0.80;;;;;;;10.98;84.30;99049.09;4982566;28;104292;-63
2023/03/20 06:20:05;;;;;;;1.77;1.10;;;;;;;10.85;84.15;99058.84;4966879;28;105117;-63
2023/03/20 06:22:34;;;;;;;1.00;0.73;;;;;;;10.92;83.95;99060.09;4967686;28;102805;-63
2023/03/20 06:25:02;;;;;;;0.80;0.80;;;;;;;10.94;84.25;99060.84;4977102;28;103749;-63
2023/03/20 06:27:35;;;;;;;0.70;0.70;;;;;;;10.90;83.38;99059.34;4971417;28;106222;-63
2023/03/20 06:30:04;;;;;;;1.47;0.97;;;;;;;11.06;83.51;99051.22;4981306;28;103751;-63
2023/03/20 06:32:34;;;;;;;0.70;0.60;;;;;;;11.19;82.18;99048.59;4968753;28;102818;-63
2023/03/20 06:35:08;;;;;;;0.97;0.87;;;;;;;11.12;81.93;99052.59;4968375;28;104351;-63
2023/03/20 06:37:37;;;;;;;1.00;0.80;;;;;;;11.10;82.03;99049.22;4979127;28;103267;-63
2023/03/20 06:40:11;;;;;;;0.73;0.73;;;;;;;11.15;82.44;99047.09;4965679;28;103220;-63
2023/03/20 06:42:39;;;;;;;3.30;1.00;;;;;;;11.02;81.88;99050.59;4969169;28;103226;-63
2023/03/20 06:45:10;;;;;;;1.37;0.90;;;;;;;11.06;82.47;99041.50;4970089;28;104625;-63
2023/03/20 06:47:40;;;;;;;1.83;0.83;;;;;;;11.17;81.15;99037.28;4966167;28;103309;-63
2023/03/20 06:50:11;;;;;;;1.13;0.87;;;;;;;11.22;81.56;99041.28;4964449;28;105237;-62
2023/03/20 06:52:39;;;;;;;1.33;0.80;;;;;;;11.31;80.94;99037.97;4978176;28;102702;-63
2023/03/20 06:55:21;;;;;;;1.77;0.80;;;;;;;11.37;80.67;99039.34;4972487;28;102792;-63
2023/03/20 06:57:49;;;;;;;0.83;0.83;;;;;;;11.37;81.55;99042.00;4975560;28;104160;-63
2023/03/20 07:00:20;;;;;;;1.33;1.20;;;;;;;11.31;81.10;99047.75;4971540;28;103334;-63
2023/03/20 07:02:48;;;;;;;2.00;1.50;;;;;;;11.47;81.57;99051.00;4971534;28;102735;-63
2023/03/20 07:05:18;;;;;;;4.87;2.10;;;;;;;11.74;80.60;99049.06;4976331;28;102697;-63
2023/03/20 07:07:47;;;;;;;1.47;1.37;;;;;;;11.79;79.51;99052.22;4993852;28;105091;-63
2023/03/20 07:10:16;;;;;;;1.73;1.30;;;;;;;11.62;79.11;99063.16;4974896;28;104201;-63
2023/03/20 07:12:49;;;;;;;3.10;1.30;;;;;;;11.84;81.01;99065.16;4971172;28;102737;-63
2023/03/20 07:15:18;;;;;;;4.27;1.60;;;;;;;11.99;78.94;99069.31;4994858;28;102655;-63
2023/03/20 07:17:47;;;;;;;4.30;1.50;;;;;;;11.82;78.57;99065.25;4976748;28;103037;-63
2023/03/20 07:20:15;;;;;;;1.20;1.10;;;;;;;11.68;78.46;99070.66;4971673;28;104690;-63
2023/03/20 07:22:45;;;;;;;1.57;1.47;;;;;;;11.69;79.47;99082.97;4977443;28;102682;-64
2023/03/20 07:25:33;;;;;;;1.30;1.10;;;;;;;11.67;78.95;99084.84;4975305;28;104047;-63
2023/03/20 07:28:13;;;;;;;1.47;1.23;;;;;;;11.69;78.80;99090.03;4991620;28;103262;-63
2023/03/20 07:30:45;;;;;;;3.20;1.43;;;;;;;11.67;78.90;99084.84;4975942;28;103663;-64
2023/03/20 07:33:16;;;;;;;1.20;1.10;;;;;;;11.76;78.94;99089.50;4973862;28;102739;-63
2023/03/20 07:35:45;;;;;;;0.87;0.60;;;;;;;12.00;79.03;99081.63;4972646;28;102740;-63
2023/03/20 07:38:15;;;;;;;1.40;0.83;;;;;;;11.89;78.63;99077.09;4975742;28;104086;-63
2023/03/20 07:40:54;;;;;;;1.37;0.90;;;;;;;12.15;77.98;99086.63;4974174;28;103278;-64
2023/03/20 07:43:22;;;;;;;1.00;0.87;;;;;;;12.27;77.20;99086.75;4995984;28;102694;-64
2023/03/20 07:46:02;;;;;;;2.50;0.90;;;;;;;12.28;77.85;99085.75;4989351;28;102650;-64
2023/03/20 07:48:30;;;;;;;2.03;1.03;;;;;;;12.11;78.45;99084.34;4985950;28;103262;-63
2023/03/20 07:50:58;;;;;;;2.80;1.10;;;;;;;12.07;76.78;99083.72;4976734;28;103321;-60
2023/03/20 07:53:28;;;;;;;1.20;1.10;;;;;;;12.26;77.42;99087.69;4976438;28;102914;-65
2023/03/20 07:55:56;;;;;;;1.70;1.30;;;;;;;12.46;76.64;99073.81;4974742;28;103117;-65
2023/03/20 07:58:24;;;;;;;1.30;1.20;;;;;;;12.73;76.40;99072.59;4990813;28;103974;-65
2023/03/20 08:00:52;;;;;;;1.30;1.20;;;;;;;12.82;76.24;99070.22;4976047;28;103172;-65
2023/03/20 08:03:20;;;;;;;1.40;1.20;;;;;;;12.81;76.41;99069.38;4977329;28;103117;-65
2023/03/20 08:05:50;;;;;;;2.53;1.37;;;;;;;13.04;76.36;99072.94;4993826;28;104214;-65
2023/03/20 08:08:18;;;;;;;1.70;1.20;;;;;;;13.25;74.65;99076.59;4994468;28;103929;-65
2023/03/20 08:10:48;;;;;;;1.33;1.07;;;;;;;13.29;73.73;99076.25;4993424;28;103199;-65
2023/03/20 08:13:16;;;;;;;1.67;1.10;;;;;;;13.32;72.63;99081.34;4992948;28;102969;-65
2023/03/20 08:15:44;;;;;;;0.80;0.80;;;;;;;13.14;73.74;99077.44;4990878;28;102632;-65
2023/03/20 08:18:12;;;;;;;0.80;0.80;;;;;;;13.26;73.41;99076.50;4972799;28;104223;-65
2023/03/20 08:20:40;;;;;;;0.70;0.70;;;;;;;13.12;72.90;99084.69;4994124;28;103203;-65
2023/03/20 08:23:08;;;;;;;0.73;0.70;;;;;;;13.02;73.15;99083.66;4994515;28;102906;-65
2023/03/20 08:25:36;;;;;;;1.57;1.00;;;;;;;12.68;73.66;99084.50;4987058;28;102738;-65
2023/03/20 08:28:06;;;;;;;1.10;1.00;;;;;;;12.77;72.52;99091.78;4995591;28;103346;-65
2023/03/20 08:30:36;;;;;;;1.10;1.00;;;;;;;12.48;72.80;99086.00;4981333;28;103203;-65
2023/03/20 08:33:04;;;;;;;1.40;1.10;;;;;;;12.94;72.64;99090.50;5002857;28;102567;-65
2023/03/20 08:35:32;;;;;;;1.20;1.10;;;;;;;13.28;71.33;99090.47;4990839;28;102630;-65
2023/03/20 08:38:01;;;;;;;1.27;0.90;;;;;;;13.18;72.34;99092.16;4995215;28;104289;-65
2023/03/20 08:40:30;;;;;;;1.50;1.20;;;;;;;12.95;72.68;99082.44;4987788;28;103250;-65
2023/03/20 08:42:58;;;;;;;1.20;1.10;;;;;;;12.81;72.35;99090.56;4986962;28;104304;-65
2023/03/20 08:45:27;;;;;;;1.07;1.00;;;;;;;13.25;72.08;99081.91;4995969;28;102959;-65
2023/03/20 08:47:55;;;;;;;1.67;1.27;;;;;;;13.55;70.26;99073.41;4998710;28;103348;-65
2023/03/20 08:50:24;;;;;;;2.13;1.10;;;;;;;13.65;72.16;99087.63;4991694;28;104190;-65
2023/03/20 08:52:53;;;;;;;4.07;1.50;;;;;;;13.83;70.29;99086.19;4998652;28;102899;-65
2023/03/20 08:55:48;;;;;;;3.27;1.53;;;;;;;14.15;70.02;99084.44;4993441;28;103060;-65
2023/03/20 08:58:39;;;;;;;2.50;1.47;;;;;;;14.12;68.71;99079.38;4987815;28;103262;-65
2023/03/20 09:01:10;;;;;;;1.60;1.20;;;;;;;14.44;67.16;99076.78;4995626;28;103184;-65
2023/03/20 09:03:38;;;;;;;1.40;1.30;;;;;;;14.30;68.07;99079.69;4990518;28;102661;-65
2023/03/20 09:06:07;;;;;;;1.60;1.50;;;;;;;14.35;67.26;99081.03;4989548;28;102818;-65
2023/03/20 09:08:35;;;;;;;1.63;1.43;;;;;;;14.42;68.16;99073.41;4994011;28;103271;-65
2023/03/20 09:11:04;;;;;;;1.20;1.03;;;;;;;14.66;66.66;99079.34;4995619;28;103402;-65
2023/03/20 09:13:32;;;;;;;1.53;1.27;;;;;;;14.62;67.04;99079.75;4996675;28;102711;-65
2023/03/20 09:15:59;;;;;;;2.60;1.60;;;;;;;14.03;67.28;99088.09;4992046;28;102890;-65
2023/03/20 09:18:29;;;;;;;1.53;1.43;;;;;;;14.66;66.59;99083.81;4987149;28;104165;-65
2023/03/20 09:20:57;;;;;;;1.67;1.27;;;;;;;14.79;66.06;99087.19;4994795;28;103203;-65
2023/03/20 09:23:25;;;;;;;2.10;1.23;;;;;;;14.65;64.26;99084.81;4997190;28;102658;-65
2023/03/20 09:25:53;;;;;;;1.00;0.90;;;;;;;15.16;65.77;99091.06;4974471;28;104000;-65
2023/03/20 09:28:21;;;;;;;2.00;1.20;;;;;;;14.77;64.87;99087.28;4986380;28;103271;-65
2023/03/20 09:30:50;;;;;;;2.27;1.17;;;;;;;14.84;64.96;99077.84;4995522;28;103029;-65
2023/03/20 09:33:18;;;;;;;1.50;1.40;;;;;;;15.21;63.45;99083.56;4977837;28;102642;-65
2023/03/20 09:35:47;;;;;;;1.27;1.03;;;;;;;15.27;63.80;99083.00;4990390;28;102704;-65
2023/03/20 09:38:15;;;;;;;2.97;1.50;;;;;;;14.91;64.60;99086.13;4989783;28;103050;-65
2023/03/20 09:40:51;;;;;;;1.30;1.20;;;;;;;15.42;64.50;99092.34;4977103;28;103289;-65
2023/03/20 09:43:35;;;;;;;1.27;1.00;;;;;;;15.55;62.38;99085.03;4992569;28;102686;-65
2023/03/20 09:46:15;;;;;;;1.80;1.00;;;;;;;15.62;61.76;99078.22;4993402;28;102874;-65
2023/03/20 09:48:49;;;;;;;1.23;1.13;;;;;;;15.26;63.33;99089.34;4992407;28;103397;-65
2023/03/20 09:51:31;;;;;;;1.30;1.20;;;;;;;15.34;63.99;99084.19;4977347;28;103053;-65
2023/03/20 09:54:04;;;;;;;1.30;1.20;;;;;;;15.76;63.47;99084.13;4997172;28;102658;-65
2023/03/20 09:56:32;;;;;;;1.73;1.33;;;;;;;15.45;61.52;99080.59;4997064;28;102709;-65
2023/03/20 09:59:05;;;;;;;2.10;1.63;;;;;;;14.02;65.71;99086.41;4994449;28;103253;-65
2023/03/20 10:01:42;;;;;;;1.87;1.60;;;;;;;14.32;67.08;99088.41;4988090;28;103420;-65
2023/03/20 10:04:12;;;;;;;3.53;1.90;;;;;;;14.34;67.62;99092.63;4995103;28;103432;-65
2023/03/20 10:06:41;;;;;;;2.10;1.90;;;;;;;14.61;67.19;99094.00;4994389;28;103105;-65
2023/03/20 10:09:16;;;;;;;2.10;1.90;;;;;;;13.87;68.78;99091.13;4995462;28;103229;-65
2023/03/20 10:11:58;;;;;;;2.80;2.43;;;;;;;13.60;69.38;99089.78;4996506;28;103322;-65
2023/03/20 10:14:37;;;;;;;3.90;2.27;;;;;;;13.55;70.55;99095.47;4993345;28;102685;-65
2023/03/20 10:17:20;;;;;;;3.67;1.67;;;;;;;13.97;69.88;99098.34;4994969;28;102707;-65
2023/03/20 10:19:53;;;;;;;2.10;1.90;;;;;;;13.91;69.93;99099.69;4992978;28;103284;-65
2023/03/20 10:22:28;;;;;;;4.37;2.27;;;;;;;13.41;70.42;99100.16;4992846;28;103222;-65
2023/03/20 10:25:02;;;;;;;2.47;2.20;;;;;;;13.25;71.83;99106.63;4992823;28;102886;-65
2023/03/20 10:27:34;;;;;;;2.17;1.90;;;;;;;13.09;72.18;99106.13;4992376;28;103002;-65
2023/03/20 10:30:20;;;;;;;2.93;2.40;;;;;;;13.07;71.67;99101.88;4993545;28;103266;-65
2023/03/20 10:32:55;;;;;;;2.63;2.20;;;;;;;13.33;71.93;99104.25;4975150;28;104412;-65
2023/03/20 10:35:29;;;;;;;2.53;2.17;;;;;;;13.47;70.86;99110.31;4996016;28;103868;-65
2023/03/20 10:38:10;;;;;;;2.67;2.10;;;;;;;13.18;71.64;99105.44;4991226;28;103967;-65
2023/03/20 10:40:41;;;;;;;1.83;1.73;;;;;;;13.59;70.53;99106.69;4988366;28;103243;-65
2023/03/20 10:43:17;;;;;;;2.10;1.90;;;;;;;13.87;68.94;99103.53;4993694;28;103291;-65
2023/03/20 10:45:50;;;;;;;2.97;2.50;;;;;;;13.55;69.99;99105.25;4988961;28;103035;-65
2023/03/20 10:48:25;;;;;;;3.47;3.10;;;;;;;13.48;70.70;99101.38;4995343;28;103791;-65
2023/03/20 10:50:56;;;;;;;4.63;3.30;;;;;;;13.09;71.30;99094.66;4985837;28;104037;-65
2023/03/20 10:53:31;;;;;;;3.80;3.30;;;;;;;13.45;71.91;99097.13;4996297;28;103278;-65
2023/03/20 10:56:04;;;;;;;4.50;3.13;;;;;;;13.91;70.70;99099.69;4994282;28;102666;-65
2023/03/20 10:58:37;;;;;;;4.07;3.60;;;;;;;13.97;69.37;99090.38;4990824;28;102657;-64
2023/03/20 11:01:06;;;;;;;3.77;3.20;;;;;;;14.08;70.25;99087.72;4991169;28;103269;-65
2023/03/20 11:03:38;;;;;;;4.40;4.00;;;;;;;14.23;68.42;99089.16;4991610;28;103348;-64
2023/03/20 11:06:13;;;;;;;7.23;4.50;;;;;;;13.68;70.48;99090.03;4995550;28;102619;-65
2023/03/20 11:08:47;;;;;;;5.10;4.07;;;;;;;14.04;70.31;99089.75;4994878;28;102669;-65
2023/03/20 11:11:22;;;;;;;5.93;3.80;;;;;;;14.01;70.69;99084.69;4995278;28;103345;-65
2023/03/20 11:13:50;;;;;;;4.33;3.93;;;;;;;14.04;71.00;99086.25;4996899;28;103178;-65
2023/03/20 11:16:21;;;;;;;4.57;4.13;;;;;;;14.23;69.81;99087.31;4995468;28;102844;-65
2023/03/20 11:18:52;;;;;;;4.87;4.13;;;;;;;14.34;67.95;99089.97;4992952;28;102739;-65
2023/03/20 11:21:26;;;;;;;3.70;3.40;;;;;;;14.94;67.07;99092.03;4995062;28;103287;-64
2023/03/20 11:23:55;;;;;;;3.80;3.50;;;;;;;14.97;65.25;99085.63;4993018;28;103169;-65
2023/03/20 11:26:35;;;;;;;4.90;4.40;;;;;;;14.45;66.91;99092.63;4987638;28;103028;-65
2023/03/20 11:29:06;;;;;;;6.13;5.03;;;;;;;14.36;68.80;99093.38;4989392;28;102774;-65
2023/03/20 11:31:36;;;;;;;5.53;4.97;;;;;;;13.84;68.96;99098.47;4995741;28;103262;-65
2023/03/20 11:34:21;;;;;;;6.17;4.60;;;;;;;14.26;68.61;99091.56;4997748;28;103171;-65
2023/03/20 11:36:56;;;;;;;5.00;4.50;;;;;;;13.97;69.17;99091.25;4992508;28;102799;-65
2023/03/20 11:39:38;;;;;;;6.23;4.60;;;;;;;14.09;66.95;99092.06;4987401;28;102800;-65
2023/03/20 11:42:22;;;;;;;5.53;4.93;;;;;;;13.54;68.36;99092.94;4990829;28;103337;-65
2023/03/20 11:44:58;;;;;;;6.20;5.17;;;;;;;13.39;69.79;99092.31;4972283;28;103202;-64
2023/03/20 11:47:29;;;;;;;6.17;5.53;;;;;;;13.39;69.50;99087.00;4970471;28;102785;-65
2023/03/20 11:49:59;;;;;;;6.03;5.27;;;;;;;13.44;69.96;99089.31;4975124;28;102814;-65
2023/03/20 11:52:32;;;;;;;7.17;5.27;;;;;;;13.51;69.12;99085.19;4998037;28;103080;-65
2023/03/20 11:55:06;;;;;;;6.03;5.43;;;;;;;13.50;68.16;99084.34;4977824;28;104121;-65
2023/03/20 11:57:36;;;;;;;7.23;5.10;;;;;;;14.02;67.33;99083.75;4992364;28;102676;-65